Time;durP1;ratioP1;P1;durP2;ratioP2;P2;SDS_P1;SDS_P2;PMS_P1;PMS_P2;Temp;Humidity;BMP_temperature;BMP_pressure;BME280_temperature;BME280_humidity;BME280_pressure;Samples;Min_cycle;Max_cycle;Signal;HPM_P1;HPM_P2
2022/01/04 00:00:49;;;;;;;18.13;7.67;;;8.00;99.90;;;;;;6217287;23;20173;-61
2022/01/04 00:03:15;;;;;;;15.10;7.17;;;8.00;99.90;;;;;;6216545;23;20146;-61
2022/01/04 00:05:41;;;;;;;24.20;7.90;;;8.00;99.90;;;;;;6216503;23;20374;-61
2022/01/04 00:08:10;;;;;;;19.37;7.37;;;8.00;99.90;;;;;;6216413;23;20146;-61
2022/01/04 00:10:37;;;;;;;30.73;7.60;;;8.00;99.90;;;;;;6216277;23;20169;-61
2022/01/04 00:13:23;;;;;;;26.80;7.73;;;8.00;99.90;;;;;;6214563;23;20381;-61
2022/01/04 00:15:52;;;;;;;22.03;7.70;;;8.00;99.90;;;;;;6214238;23;20365;-61
2022/01/04 00:18:18;;;;;;;18.33;8.27;;;7.90;99.90;;;;;;6214528;23;20430;-61
2022/01/04 00:20:44;;;;;;;22.10;8.00;;;7.90;99.90;;;;;;6213931;23;20824;-61
2022/01/04 00:23:09;;;;;;;22.63;7.87;;;7.90;1.00;;;;;;6214329;23;20465;-60
2022/01/04 00:25:36;;;;;;;24.10;8.47;;;7.90;1.00;;;;;;6213635;23;20781;-61
2022/01/04 00:28:06;;;;;;;20.40;8.23;;;7.90;1.00;;;;;;6214205;23;20197;-61
2022/01/04 00:30:33;;;;;;;15.87;7.20;;;7.90;1.00;;;;;;6214038;23;20372;-61
2022/01/04 00:32:58;;;;;;;22.80;8.57;;;7.90;99.90;;;;;;6214246;23;20397;-61
2022/01/04 00:35:24;;;;;;;22.43;7.93;;;7.90;99.90;;;;;;6214077;23;20752;-60
2022/01/04 00:37:49;;;;;;;21.10;8.80;;;7.90;99.90;;;;;;6214494;23;20219;-61
2022/01/04 00:40:15;;;;;;;27.00;8.40;;;7.90;99.90;;;;;;6214207;23;20903;-60
2022/01/04 00:42:40;;;;;;;21.67;8.83;;;7.90;1.00;;;;;;6214476;23;20143;-60
2022/01/04 00:45:06;;;;;;;19.13;8.73;;;7.90;99.90;;;;;;6213729;23;20221;-60
2022/01/04 00:50:16;;;;;;;26.27;9.50;;;7.90;1.00;;;;;;6214652;23;20396;-61
2022/01/04 00:52:42;;;;;;;19.10;8.70;;;7.90;99.90;;;;;;6214156;23;20449;-60
2022/01/04 00:55:08;;;;;;;21.53;8.60;;;7.90;99.90;;;;;;6213708;23;20624;-61
2022/01/04 00:57:33;;;;;;;22.90;8.97;;;7.80;99.90;;;;;;6214176;23;20171;-60
2022/01/04 00:59:59;;;;;;;20.40;7.97;;;7.90;99.90;;;;;;6213651;23;20436;-60
2022/01/04 01:02:24;;;;;;;28.03;9.33;;;7.90;1.00;;;;;;6212996;23;20138;-60
2022/01/04 01:04:50;;;;;;;29.47;9.53;;;7.80;99.90;;;;;;6213911;23;20185;-61
2022/01/04 01:07:15;;;;;;;25.33;9.23;;;7.80;99.90;;;;;;6213912;23;20150;-60
2022/01/04 01:09:55;;;;;;;24.90;10.20;;;7.80;1.00;;;;;;6213710;23;20180;-60
2022/01/04 01:12:20;;;;;;;23.07;9.10;;;7.80;1.00;;;;;;6214036;23;20145;-64
2022/01/04 01:14:46;;;;;;;28.97;9.20;;;7.80;1.00;;;;;;6213663;23;20441;-61
2022/01/04 01:17:11;;;;;;;22.97;9.50;;;7.80;1.00;;;;;;6213619;23;20138;-61
2022/01/04 01:19:37;;;;;;;16.23;9.10;;;7.80;1.00;;;;;;6213718;23;20404;-61
2022/01/04 01:22:03;;;;;;;21.37;9.10;;;7.80;1.00;;;;;;6213634;23;20145;-61
2022/01/04 01:24:29;;;;;;;25.23;9.30;;;7.80;1.00;;;;;;6213048;23;20397;-62
2022/01/04 01:26:54;;;;;;;23.87;10.10;;;7.80;1.00;;;;;;6213417;23;20821;-60
2022/01/04 01:29:20;;;;;;;23.17;8.13;;;7.80;1.00;;;;;;6213593;23;20553;-61
2022/01/04 01:31:45;;;;;;;22.93;10.00;;;7.80;1.00;;;;;;6213564;23;20162;-61
2022/01/04 01:34:11;;;;;;;25.93;9.60;;;7.90;1.00;;;;;;6213365;23;20150;-61
2022/01/04 01:36:36;;;;;;;24.57;9.40;;;7.80;1.00;;;;;;6213510;23;20233;-61
2022/01/04 01:39:03;;;;;;;24.10;9.27;;;7.70;99.90;;;;;;6213452;23;20217;-61
2022/01/04 01:41:29;;;;;;;20.20;9.17;;;7.80;1.00;;;;;;6213665;23;20151;-61
2022/01/04 01:43:56;;;;;;;23.10;9.30;;;7.70;1.00;;;;;;6213639;23;20366;-60
2022/01/04 01:46:21;;;;;;;21.60;8.63;;;7.70;99.90;;;;;;6213102;23;20509;-60
2022/01/04 01:48:47;;;;;;;23.83;9.90;;;7.70;1.00;;;;;;6213511;23;20417;-61
2022/01/04 01:51:16;;;;;;;19.90;10.00;;;7.80;99.90;;;;;;6213543;23;20678;-61
2022/01/04 01:53:42;;;;;;;20.83;8.60;;;7.80;1.00;;;;;;6213339;23;20171;-60
2022/01/04 01:56:07;;;;;;;24.43;9.63;;;7.90;77.60;;;;;;6213261;23;20382;-61
2022/01/04 01:58:33;;;;;;;23.13;9.53;;;7.90;1.00;;;;;;6213278;23;20440;-61
2022/01/04 02:00:58;;;;;;;22.10;9.00;;;7.90;22.50;;;;;;6213120;23;20173;-60
2022/01/04 02:03:25;;;;;;;15.50;8.30;;;7.90;1.00;;;;;;6213487;23;20255;-61
2022/01/04 02:05:51;;;;;;;20.90;8.30;;;7.90;1.00;;;;;;6213148;23;20414;-61
2022/01/04 02:08:18;;;;;;;20.00;9.00;;;7.90;1.00;;;;;;6212442;23;20154;-61
2022/01/04 02:10:45;;;;;;;21.50;8.70;;;7.90;1.00;;;;;;6212973;23;20192;-60
2022/01/04 02:13:11;;;;;;;26.13;9.53;;;8.00;1.00;;;;;;6212891;23;20365;-60
2022/01/04 02:15:37;;;;;;;22.10;10.33;;;7.90;1.00;;;;;;6213174;23;20381;-61
2022/01/04 02:18:03;;;;;;;21.73;9.27;;;7.90;1.00;;;;;;6213196;23;20989;-61
2022/01/04 02:20:29;;;;;;;23.30;9.17;;;7.90;1.00;;;;;;6213042;23;20400;-61
2022/01/04 02:22:55;;;;;;;16.50;8.53;;;7.90;99.90;;;;;;6212931;23;20460;-61
2022/01/04 02:25:21;;;;;;;24.27;9.90;;;7.90;99.90;;;;;;6213334;23;20150;-61
2022/01/04 02:27:47;;;;;;;25.83;9.87;;;7.80;99.90;;;;;;6213150;23;20374;-60
2022/01/04 02:30:16;;;;;;;31.30;10.13;;;7.80;1.00;;;;;;6212874;23;20381;-61
2022/01/04 02:32:43;;;;;;;22.43;10.33;;;7.90;99.90;;;;;;6212765;23;20851;-60
2022/01/04 02:35:12;;;;;;;28.40;10.17;;;8.00;99.90;;;;;;6213195;23;20690;-60
2022/01/04 02:37:37;;;;;;;27.17;10.23;;;8.00;1.00;;;;;;6212797;23;20422;-60
2022/01/04 02:40:03;;;;;;;20.83;10.10;;;7.90;1.00;;;;;;6212923;23;20808;-60
2022/01/04 02:42:29;;;;;;;22.33;10.13;;;8.00;1.00;;;;;;6213037;23;20482;-61
2022/01/04 02:44:55;;;;;;;22.13;10.83;;;7.90;1.00;;;;;;6212945;23;20369;-60
2022/01/04 02:47:20;;;;;;;21.90;10.77;;;7.90;93.60;;;;;;6212734;23;20147;-59
2022/01/04 02:49:46;;;;;;;25.07;10.37;;;7.90;99.90;;;;;;6212698;23;20208;-60
2022/01/04 02:52:12;;;;;;;29.43;11.17;;;7.80;99.90;;;;;;6213416;23;20198;-60
2022/01/04 02:54:38;;;;;;;24.80;11.77;;;7.90;1.00;;;;;;6212666;23;20484;-60
2022/01/04 02:57:04;;;;;;;25.27;12.00;;;7.90;99.90;;;;;;6212551;23;20540;-61
2022/01/04 02:59:29;;;;;;;21.67;11.70;;;7.90;11.60;;;;;;6212872;23;20178;-60
2022/01/04 03:01:55;;;;;;;24.93;11.43;;;7.90;99.90;;;;;;6212956;23;20377;-60
2022/01/04 03:04:20;;;;;;;26.43;11.97;;;7.90;99.90;;;;;;6211648;23;20181;-60
2022/01/04 03:06:46;;;;;;;30.23;12.23;;;7.90;99.90;;;;;;6210429;23;20139;-61
2022/01/04 03:09:12;;;;;;;24.53;12.00;;;7.90;99.90;;;;;;6210451;23;20151;-61
2022/01/04 03:11:38;;;;;;;27.93;12.20;;;7.90;99.90;;;;;;6212786;23;20795;-61
2022/01/04 03:14:04;;;;;;;21.17;11.40;;;7.80;1.00;;;;;;6209938;23;20225;-61
2022/01/04 03:16:29;;;;;;;31.03;12.83;;;7.80;1.00;;;;;;6211518;23;20162;-61
2022/01/04 03:21:26;;;;;;;36.33;13.27;;;7.80;99.90;;;;;;6220764;23;20147;-61
2022/01/04 03:23:52;;;;;;;29.23;11.50;;;7.80;1.00;;;;;;6211889;23;20388;-60
2022/01/04 03:26:17;;;;;;;30.03;12.70;;;7.90;99.90;;;;;;6211657;23;20608;-60
2022/01/04 03:28:43;;;;;;;26.40;11.63;;;7.90;12.10;;;;;;6212578;23;20163;-61
2022/01/04 03:31:08;;;;;;;26.67;13.50;;;7.90;1.00;;;;;;6212439;23;20143;-60
2022/01/04 03:33:35;;;;;;;23.97;11.83;;;7.90;1.00;;;;;;6212549;23;20145;-60
2022/01/04 03:36:02;;;;;;;23.57;12.50;;;7.90;1.00;;;;;;6212372;23;20169;-59
2022/01/04 03:38:27;;;;;;;26.60;13.30;;;7.90;1.00;;;;;;6212254;23;20417;-60
2022/01/04 03:40:54;;;;;;;33.33;13.53;;;7.80;99.90;;;;;;6212192;23;20374;-60
2022/01/04 03:43:21;;;;;;;32.73;13.10;;;7.80;99.90;;;;;;6212617;23;20277;-60
2022/01/04 03:45:47;;;;;;;27.53;13.50;;;7.90;99.90;;;;;;6212265;23;20682;-61
2022/01/04 03:48:13;;;;;;;30.83;12.83;;;7.80;99.90;;;;;;6213913;23;20382;-60
2022/01/04 03:50:39;;;;;;;24.57;13.90;;;7.80;1.00;;;;;;6214495;23;20397;-59
2022/01/04 03:53:04;;;;;;;31.47;13.43;;;7.80;1.00;;;;;;6184729;23;20201;-61
2022/01/04 03:55:30;;;;;;;32.17;13.23;;;7.70;1.00;;;;;;6182838;23;20373;-62
2022/01/04 03:57:56;;;;;;;37.70;14.30;;;7.70;1.00;;;;;;6184321;23;20183;-61
2022/01/04 04:00:21;;;;;;;29.30;13.17;;;7.70;99.90;;;;;;6183757;23;20238;-60
2022/01/04 04:02:47;;;;;;;37.23;12.83;;;7.70;1.00;;;;;;6183209;23;20154;-60
2022/01/04 04:05:13;;;;;;;32.30;13.47;;;7.70;1.00;;;;;;6181569;23;20181;-61
2022/01/04 04:07:38;;;;;;;26.70;13.17;;;7.70;1.00;;;;;;6181725;23;20147;-60
2022/01/04 04:10:05;;;;;;;28.23;14.30;;;7.70;99.90;;;;;;6181726;23;20418;-60
2022/01/04 04:12:30;;;;;;;25.40;14.07;;;7.80;99.90;;;;;;6183726;23;20159;-60
2022/01/04 04:14:58;;;;;;;28.80;14.53;;;7.70;1.00;;;;;;6183878;23;20417;-61
2022/01/04 04:17:24;;;;;;;29.77;14.50;;;7.70;38.80;;;;;;6183942;23;20213;-60
2022/01/04 04:19:49;;;;;;;32.90;14.40;;;7.70;99.90;;;;;;6183336;23;20363;-66
2022/01/04 04:22:15;;;;;;;36.43;14.60;;;7.70;99.90;;;;;;6183937;23;20144;-60
2022/01/04 04:24:41;;;;;;;43.00;13.80;;;7.80;1.00;;;;;;6184037;23;20182;-60
2022/01/04 04:27:07;;;;;;;26.93;14.33;;;7.80;99.90;;;;;;6183591;23;20140;-61
2022/01/04 04:29:33;;;;;;;31.90;15.20;;;7.70;99.90;;;;;;6182642;23;20155;-60
2022/01/04 04:31:58;;;;;;;25.77;13.40;;;7.80;99.90;;;;;;6157274;23;20245;-60
2022/01/04 04:34:24;;;;;;;28.33;15.20;;;7.80;1.00;;;;;;6183313;23;20379;-60
2022/01/04 04:36:50;;;;;;;29.40;14.00;;;7.70;99.90;;;;;;6183821;23;20158;-61
2022/01/04 04:39:15;;;;;;;32.63;14.17;;;7.70;99.90;;;;;;6157289;23;20582;-61
2022/01/04 04:41:41;;;;;;;25.93;14.40;;;7.70;8.80;;;;;;6183287;23;20154;-61
2022/01/04 04:44:06;;;;;;;33.20;16.17;;;7.70;1.00;;;;;;6183114;23;20173;-60
2022/01/04 04:46:32;;;;;;;35.03;15.27;;;7.70;1.00;;;;;;6182563;23;20179;-60
2022/01/04 04:48:59;;;;;;;33.43;14.97;;;7.70;1.00;;;;;;6183727;23;20180;-61
2022/01/04 04:51:26;;;;;;;37.70;15.73;;;7.70;36.80;;;;;;6192984;23;20198;-60
2022/01/04 04:53:52;;;;;;;29.37;15.20;;;7.70;1.00;;;;;;6213888;23;20370;-60
2022/01/04 04:56:17;;;;;;;32.53;15.20;;;7.70;63.60;;;;;;6213627;23;20408;-60
2022/01/04 04:58:43;;;;;;;31.73;14.30;;;7.80;1.00;;;;;;6213423;23;20184;-62
2022/01/04 05:01:08;;;;;;;48.70;16.27;;;7.80;1.00;;;;;;6212478;23;20233;-60
2022/01/04 05:03:34;;;;;;;31.73;15.40;;;7.80;1.00;;;;;;6211934;23;20557;-60
2022/01/04 05:05:59;;;;;;;34.13;15.60;;;7.80;99.90;;;;;;6211527;23;20165;-60
2022/01/04 05:08:25;;;;;;;36.00;15.33;;;7.80;99.90;;;;;;6213457;23;20229;-60
2022/01/04 05:10:50;;;;;;;35.93;14.50;;;7.80;99.90;;;;;;6213591;23;20704;-61
2022/01/04 05:13:16;;;;;;;38.50;14.93;;;7.80;99.90;;;;;;6213693;23;20237;-60
2022/01/04 05:15:41;;;;;;;28.30;14.60;;;7.70;1.00;;;;;;6213549;23;20177;-60
2022/01/04 05:18:09;;;;;;;24.53;14.23;;;7.70;34.10;;;;;;6211986;23;20329;-59
2022/01/04 05:20:34;;;;;;;34.10;14.57;;;7.70;75.80;;;;;;6211756;23;20161;-61
2022/01/04 05:23:00;;;;;;;43.13;15.37;;;7.70;21.80;;;;;;6211356;23;20409;-61
2022/01/04 05:25:26;;;;;;;36.07;16.20;;;7.80;99.90;;;;;;6211492;23;20805;-60
2022/01/04 05:27:51;;;;;;;31.00;15.47;;;7.70;1.00;;;;;;6211149;23;20190;-61
2022/01/04 05:30:17;;;;;;;38.23;16.53;;;7.80;1.00;;;;;;6211863;23;20253;-60
2022/01/04 05:32:42;;;;;;;36.00;16.07;;;7.80;99.90;;;;;;6213446;23;20159;-60
2022/01/04 05:35:08;;;;;;;34.80;15.00;;;7.80;99.90;;;;;;6213300;23;20157;-60
2022/01/04 05:37:33;;;;;;;34.83;17.73;;;7.80;1.00;;;;;;6213488;23;20173;-61
2022/01/04 05:39:59;;;;;;;36.80;16.63;;;7.80;1.00;;;;;;6213146;23;20209;-61
2022/01/04 05:42:24;;;;;;;33.50;15.90;;;7.80;1.00;;;;;;6213239;23;20138;-61
2022/01/04 05:44:50;;;;;;;29.30;15.30;;;7.70;99.90;;;;;;6213011;23;20621;-60
2022/01/04 05:47:15;;;;;;;34.97;16.23;;;7.70;99.90;;;;;;6212633;23;20240;-61
2022/01/04 05:49:41;;;;;;;31.10;15.80;;;7.80;1.00;;;;;;6213446;23;20170;-61
2022/01/04 05:52:07;;;;;;;31.20;15.10;;;7.70;1.00;;;;;;6213132;23;20198;-62
2022/01/04 05:54:33;;;;;;;42.47;16.20;;;7.70;1.00;;;;;;6213072;23;20146;-61
2022/01/04 05:56:58;;;;;;;32.03;17.07;;;7.80;97.60;;;;;;6213282;23;20321;-60
2022/01/04 05:59:24;;;;;;;33.87;16.10;;;7.80;1.00;;;;;;6212975;23;20186;-60
2022/01/04 06:01:49;;;;;;;33.80;16.83;;;7.70;1.00;;;;;;6213330;23;20150;-60
2022/01/04 06:04:15;;;;;;;42.87;17.27;;;7.70;92.50;;;;;;6212720;23;20150;-60
2022/01/04 06:06:41;;;;;;;35.30;16.93;;;7.70;1.00;;;;;;6212859;23;20158;-60
2022/01/04 06:09:09;;;;;;;32.27;16.73;;;7.70;1.00;;;;;;6212948;23;20249;-60
2022/01/04 06:15:06;;;;;;;39.53;16.33;;;7.70;99.90;;;;;;6213469;23;20381;-61
2022/01/04 06:17:02;;;;;;;35.97;18.00;;;7.60;1.00;;;;;;6193398;23;20489;-59
2022/01/04 06:19:28;;;;;;;41.90;18.57;;;7.60;99.90;;;;;;6213137;23;20449;-61
2022/01/04 06:21:53;;;;;;;40.47;17.67;;;7.60;1.00;;;;;;6211978;23;20373;-63
2022/01/04 06:24:19;;;;;;;44.97;18.80;;;7.50;99.90;;;;;;6213084;23;20147;-60
2022/01/04 06:26:44;;;;;;;40.90;18.33;;;7.50;1.00;;;;;;6212945;23;20500;-60
2022/01/04 06:29:11;;;;;;;39.83;19.33;;;7.60;99.90;;;;;;6213207;23;20193;-60
2022/01/04 06:31:40;;;;;;;45.03;18.70;;;7.50;1.00;;;;;;6212764;23;20142;-60
2022/01/04 06:34:06;;;;;;;46.10;18.80;;;7.60;1.00;;;;;;6213075;23;20883;-60
2022/01/04 06:36:32;;;;;;;42.50;20.50;;;7.60;17.30;;;;;;6212922;23;20370;-60
2022/01/04 06:38:58;;;;;;;47.87;20.80;;;7.50;1.00;;;;;;6213067;23;20495;-59
2022/01/04 06:41:24;;;;;;;51.07;20.30;;;7.60;1.00;;;;;;6212917;23;20174;-64
2022/01/04 06:43:49;;;;;;;39.83;19.30;;;7.60;99.90;;;;;;6213028;23;20174;-60
2022/01/04 06:46:15;;;;;;;42.13;19.87;;;7.60;99.90;;;;;;6212754;23;20178;-61
2022/01/04 06:48:41;;;;;;;44.10;20.13;;;7.60;1.00;;;;;;6213458;23;20629;-61
2022/01/04 06:51:08;;;;;;;43.03;19.63;;;7.60;1.00;;;;;;6212964;23;20324;-61
2022/01/04 06:53:34;;;;;;;44.00;20.37;;;7.60;1.00;;;;;;6212628;23;20425;-61
2022/01/04 06:56:00;;;;;;;40.30;20.43;;;7.60;99.90;;;;;;6186070;23;20401;-61
2022/01/04 06:58:25;;;;;;;41.43;18.53;;;7.60;99.90;;;;;;6212503;23;20178;-61
2022/01/04 07:00:51;;;;;;;43.60;19.03;;;7.60;99.90;;;;;;6212632;23;20392;-61
2022/01/04 07:03:17;;;;;;;46.10;19.90;;;7.60;1.00;;;;;;6212898;23;20143;-61
2022/01/04 07:05:42;;;;;;;41.03;19.50;;;7.60;99.90;;;;;;6212204;23;20502;-60
2022/01/04 07:08:08;;;;;;;50.07;19.80;;;7.60;99.90;;;;;;6212884;23;20166;-61
2022/01/04 07:10:34;;;;;;;45.80;21.87;;;7.60;1.00;;;;;;6212558;23;20174;-61
2022/01/04 07:12:59;;;;;;;39.63;17.67;;;7.60;1.00;;;;;;6212063;23;20177;-61
2022/01/04 07:15:25;;;;;;;52.60;21.10;;;7.60;1.00;;;;;;6212489;23;20169;-62
2022/01/04 07:17:50;;;;;;;46.63;20.57;;;7.60;1.00;;;;;;6213014;23;20193;-61
2022/01/04 07:20:16;;;;;;;45.43;19.60;;;7.60;99.90;;;;;;6212937;23;20159;-60
2022/01/04 07:22:41;;;;;;;41.20;19.60;;;7.60;99.90;;;;;;6214553;23;20138;-60
2022/01/04 07:25:07;;;;;;;42.83;19.00;;;7.60;30.40;;;;;;6214062;23;20456;-60
2022/01/04 07:27:33;;;;;;;45.80;20.77;;;7.60;99.90;;;;;;6214382;23;20182;-61
2022/01/04 07:29:59;;;;;;;51.43;20.13;;;7.60;1.00;;;;;;6214753;23;20831;-60
2022/01/04 07:32:25;;;;;;;45.97;20.90;;;7.60;99.90;;;;;;6214767;23;20139;-60
2022/01/04 07:34:50;;;;;;;46.73;21.87;;;7.60;99.90;;;;;;6188132;23;20400;-61
2022/01/04 07:37:16;;;;;;;41.70;19.20;;;7.60;1.00;;;;;;6214115;23;20168;-60
2022/01/04 07:39:42;;;;;;;43.53;19.87;;;7.60;99.90;;;;;;6214676;23;20513;-61
2022/01/04 07:42:07;;;;;;;46.17;21.13;;;7.70;6.10;;;;;;6214467;23;20166;-60
2022/01/04 07:44:33;;;;;;;49.03;20.10;;;7.70;99.90;;;;;;6214827;23;20143;-59
2022/01/04 07:46:59;;;;;;;37.97;19.60;;;7.70;99.90;;;;;;6214440;23;20242;-61
2022/01/04 07:49:25;;;;;;;40.63;19.03;;;7.70;1.00;;;;;;6214542;23;20572;-61
2022/01/04 07:51:50;;;;;;;44.27;20.33;;;7.70;1.00;;;;;;6214542;23;20206;-61
2022/01/04 07:54:16;;;;;;;44.47;20.47;;;7.70;91.10;;;;;;6214572;23;20320;-60
2022/01/04 07:56:42;;;;;;;41.77;19.57;;;7.70;96.40;;;;;;6214571;23;20507;-60
2022/01/04 07:59:07;;;;;;;40.67;18.53;;;7.80;99.90;;;;;;6214168;23;20667;-60
2022/01/04 08:01:33;;;;;;;42.83;20.13;;;7.80;1.00;;;;;;6214910;23;20151;-60
2022/01/04 08:04:00;;;;;;;51.60;20.17;;;7.80;99.90;;;;;;6213548;23;20523;-61
2022/01/04 08:06:27;;;;;;;45.60;19.90;;;7.80;1.00;;;;;;6213715;23;20158;-60
2022/01/04 08:08:52;;;;;;;42.27;19.10;;;7.80;99.90;;;;;;6213992;23;20376;-60
2022/01/04 08:11:19;;;;;;;43.73;20.97;;;7.80;1.00;;;;;;6214111;23;20382;-60
2022/01/04 08:13:45;;;;;;;47.60;20.13;;;7.80;99.90;;;;;;6214447;23;20232;-61
2022/01/04 08:16:10;;;;;;;43.97;21.13;;;7.80;9.70;;;;;;6214239;23;20370;-59
2022/01/04 08:18:36;;;;;;;45.30;20.67;;;7.80;91.70;;;;;;6214167;23;20204;-59
2022/01/04 08:21:04;;;;;;;57.40;20.00;;;7.80;99.90;;;;;;6214087;23;20158;-60
2022/01/04 08:23:30;;;;;;;48.63;22.30;;;7.80;1.00;;;;;;6214103;23;20139;-61
2022/01/04 08:25:56;;;;;;;42.53;18.47;;;7.80;99.90;;;;;;6214109;23;20368;-61
2022/01/04 08:28:22;;;;;;;40.00;18.70;;;7.80;1.00;;;;;;6213259;23;20377;-60
2022/01/04 08:30:47;;;;;;;37.60;18.50;;;7.90;99.90;;;;;;6214399;23;20374;-60
2022/01/04 08:33:13;;;;;;;43.37;18.13;;;7.90;1.00;;;;;;6213724;23;20158;-60
2022/01/04 08:35:39;;;;;;;41.97;17.40;;;7.90;1.00;;;;;;6214438;23;20252;-60
2022/01/04 08:38:06;;;;;;;37.73;18.47;;;7.90;1.00;;;;;;6213150;23;20508;-60
2022/01/04 08:40:32;;;;;;;39.87;18.43;;;7.90;1.00;;;;;;6213927;23;20147;-60
2022/01/04 08:42:57;;;;;;;41.47;18.60;;;7.90;1.00;;;;;;6213951;23;20428;-60
2022/01/04 08:45:24;;;;;;;41.90;19.70;;;7.90;99.90;;;;;;6213901;23;20218;-60
2022/01/04 08:47:51;;;;;;;41.10;19.50;;;7.90;99.90;;;;;;6213708;23;20139;-62
2022/01/04 08:50:18;;;;;;;47.50;19.67;;;7.90;1.00;;;;;;6213854;23;20428;-60
2022/01/04 08:52:43;;;;;;;42.80;19.30;;;7.90;27.30;;;;;;6209686;23;20440;-60
2022/01/04 08:55:11;;;;;;;43.80;19.63;;;7.90;99.90;;;;;;6211072;23;20378;-60
2022/01/04 08:57:39;;;;;;;41.03;18.87;;;8.00;99.90;;;;;;6213547;23;20229;-60
2022/01/04 09:00:07;;;;;;;42.53;20.40;;;7.90;99.90;;;;;;6213615;23;20448;-61
2022/01/04 09:02:33;;;;;;;43.90;20.40;;;7.90;1.00;;;;;;6213377;23;20424;-61
2022/01/04 09:04:59;;;;;;;41.03;20.00;;;7.90;46.80;;;;;;6213605;23;20386;-60
2022/01/04 09:07:26;;;;;;;42.47;18.73;;;7.90;1.00;;;;;;6213599;23;20460;-61
2022/01/04 09:09:51;;;;;;;39.23;19.70;;;7.80;1.00;;;;;;6213420;23;20396;-61
2022/01/04 09:12:19;;;;;;;50.73;20.43;;;7.80;99.90;;;;;;6213516;23;20469;-62
2022/01/04 09:20:05;;;;;;;40.57;19.87;;;7.90;21.70;;;;;;6212529;23;20400;-61
2022/01/04 09:22:31;;;;;;;46.17;19.03;;;7.90;99.90;;;;;;6212913;23;20839;-61
2022/01/04 09:24:56;;;;;;;42.70;19.40;;;7.90;99.90;;;;;;6213703;23;20370;-61
2022/01/04 09:27:22;;;;;;;40.13;18.90;;;7.90;99.90;;;;;;6213570;23;20159;-61
2022/01/04 09:29:47;;;;;;;40.30;20.20;;;7.90;1.00;;;;;;6212070;23;20592;-65
2022/01/04 09:32:16;;;;;;;44.77;19.57;;;7.90;1.00;;;;;;6213847;23;20150;-61
2022/01/04 09:34:45;;;;;;;37.03;18.33;;;7.90;1.00;;;;;;6213652;23;20166;-62
2022/01/04 09:37:11;;;;;;;40.17;19.10;;;8.00;99.90;;;;;;6213053;23;20377;-62
2022/01/04 09:39:36;;;;;;;43.27;19.50;;;8.00;99.90;;;;;;6213544;23;20429;-62
2022/01/04 09:42:02;;;;;;;39.23;18.77;;;8.00;1.00;;;;;;6213618;23;20143;-62
2022/01/04 09:44:28;;;;;;;35.57;19.00;;;8.00;1.00;;;;;;6213055;23;20147;-62
2022/01/04 09:46:55;;;;;;;33.90;18.37;;;8.00;1.00;;;;;;6213105;23;20158;-63
2022/01/04 09:49:21;;;;;;;39.10;18.70;;;8.00;1.00;;;;;;6212959;23;20150;-62
2022/01/04 09:51:48;;;;;;;44.73;19.00;;;8.00;99.90;;;;;;6212697;23;20903;-62
2022/01/04 09:54:20;;;;;;;42.20;18.63;;;8.00;1.00;;;;;;6212694;23;20362;-61
2022/01/04 09:56:47;;;;;;;39.77;19.30;;;8.10;99.90;;;;;;6213170;23;20373;-62
2022/01/04 09:59:13;;;;;;;36.37;19.00;;;8.10;1.00;;;;;;6212858;23;20429;-62
2022/01/04 10:01:39;;;;;;;37.67;18.30;;;8.10;1.00;;;;;;6213017;23;20388;-62
2022/01/04 10:04:05;;;;;;;32.97;17.93;;;8.20;1.00;;;;;;6213727;23;20182;-61
2022/01/04 10:06:32;;;;;;;40.23;18.07;;;8.10;1.00;;;;;;6213393;23;20767;-62
2022/01/04 10:09:06;;;;;;;37.13;19.77;;;8.20;1.00;;;;;;6213448;23;20382;-62
2022/01/04 10:11:43;;;;;;;42.90;19.77;;;8.10;99.90;;;;;;6213366;23;20368;-62
2022/01/04 10:14:31;;;;;;;42.73;19.10;;;8.10;99.90;;;;;;6213565;23;20416;-62
2022/01/04 10:17:02;;;;;;;30.60;17.30;;;8.20;99.90;;;;;;6213153;23;20485;-62
2022/01/04 10:19:33;;;;;;;39.67;17.90;;;8.20;29.60;;;;;;6213363;23;20417;-61
2022/01/04 10:22:15;;;;;;;31.13;17.57;;;8.20;1.00;;;;;;6213155;23;20377;-62
2022/01/04 10:24:43;;;;;;;36.83;17.10;;;8.30;99.90;;;;;;6213230;23;20821;-59
2022/01/04 10:27:26;;;;;;;31.90;16.90;;;8.30;1.00;;;;;;6213371;23;20575;-61
2022/01/04 10:30:16;;;;;;;30.97;16.77;;;8.30;99.90;;;;;;6213544;23;20874;-62
2022/01/04 10:32:52;;;;;;;34.97;16.57;;;8.20;99.90;;;;;;6213173;23;20358;-62
2022/01/04 10:35:28;;;;;;;36.30;16.77;;;8.20;1.00;;;;;;6212993;23;20353;-62
2022/01/04 10:37:55;;;;;;;37.17;17.00;;;8.20;99.90;;;;;;6213011;23;20417;-62
2022/01/04 10:40:21;;;;;;;35.87;17.50;;;8.10;99.90;;;;;;6213032;23;20838;-62
2022/01/04 10:42:47;;;;;;;31.77;16.77;;;8.10;99.90;;;;;;6213323;23;20667;-62
2022/01/04 10:45:28;;;;;;;33.37;15.30;;;8.10;73.30;;;;;;6213416;23;20384;-62
2022/01/04 10:47:54;;;;;;;21.30;10.07;;;8.00;54.50;;;;;;6213216;23;20482;-63
2022/01/04 10:50:34;;;;;;;21.50;10.00;;;7.90;99.90;;;;;;6213157;23;20420;-61
2022/01/04 10:53:01;;;;;;;19.33;8.80;;;7.80;1.00;;;;;;6212943;23;20829;-62
2022/01/04 10:55:36;;;;;;;14.00;7.60;;;7.70;1.00;;;;;;6212854;23;20417;-62
2022/01/04 10:58:04;;;;;;;21.23;8.47;;;7.70;99.90;;;;;;6212974;23;20440;-62
2022/01/04 11:00:31;;;;;;;24.73;10.07;;;7.60;1.00;;;;;;6213146;23;21062;-62
2022/01/04 11:02:58;;;;;;;26.43;10.77;;;7.60;99.90;;;;;;6213128;23;20373;-62
2022/01/04 11:05:24;;;;;;;16.77;9.77;;;7.60;1.00;;;;;;6213385;23;20447;-62
2022/01/04 11:07:57;;;;;;;24.90;12.80;;;7.60;99.90;;;;;;6212995;23;20381;-62
2022/01/04 11:10:23;;;;;;;23.83;11.40;;;7.60;99.90;;;;;;6213066;23;20419;-62
2022/01/04 11:12:49;;;;;;;22.23;11.40;;;7.70;1.00;;;;;;6213005;23;20448;-62
2022/01/04 11:15:15;;;;;;;25.63;12.40;;;7.70;1.00;;;;;;6213106;23;20370;-62
2022/01/04 11:17:41;;;;;;;23.13;12.50;;;7.70;99.90;;;;;;6213171;23;20162;-62
2022/01/04 11:20:07;;;;;;;28.60;12.10;;;7.70;99.90;;;;;;6212798;23;20366;-61
2022/01/04 11:22:35;;;;;;;28.47;14.20;;;7.60;99.90;;;;;;6212902;23;20795;-62
2022/01/04 11:25:02;;;;;;;24.93;12.37;;;7.70;99.90;;;;;;6212974;23;20362;-62
2022/01/04 11:27:32;;;;;;;26.87;13.50;;;7.70;99.90;;;;;;6213196;23;20460;-62
2022/01/04 11:30:00;;;;;;;27.10;12.83;;;7.70;99.90;;;;;;6213108;23;20432;-62
2022/01/04 11:32:26;;;;;;;25.77;11.37;;;7.70;99.90;;;;;;6212754;23;20368;-62
2022/01/04 11:35:03;;;;;;;20.30;10.90;;;7.70;99.90;;;;;;6212890;23;20366;-61
2022/01/04 11:37:29;;;;;;;11.33;6.47;;;7.70;99.90;;;;;;6213000;23;20389;-61
2022/01/04 11:39:56;;;;;;;14.20;6.73;;;7.60;99.90;;;;;;6213259;23;20417;-62
2022/01/04 11:42:31;;;;;;;9.60;5.30;;;7.60;1.00;;;;;;6213127;23;20423;-62
2022/01/04 11:44:57;;;;;;;10.73;3.90;;;7.50;1.00;;;;;;6212695;23;20887;-62
2022/01/04 11:47:32;;;;;;;11.23;3.50;;;7.50;11.30;;;;;;6212786;23;20888;-62
2022/01/04 11:50:16;;;;;;;8.13;3.27;;;7.50;1.00;;;;;;6212857;23;20673;-61
2022/01/04 11:52:49;;;;;;;7.90;2.70;;;7.40;99.90;;;;;;6212969;23;20441;-62
2022/01/04 11:55:26;;;;;;;7.30;2.40;;;7.40;1.00;;;;;;6212960;23;20469;-61
2022/01/04 11:57:55;;;;;;;4.27;2.30;;;7.40;1.00;;;;;;6212616;23;20423;-62
2022/01/04 12:01:00;;;;;;;7.50;3.00;;;7.40;1.00;;;;;;6212999;23;20386;-62
2022/01/04 12:03:38;;;;;;;6.33;2.70;;;7.40;99.90;;;;;;6195290;23;20431;-62
2022/01/04 12:06:05;;;;;;;6.53;2.87;;;7.40;99.90;;;;;;6212687;23;20785;-62
2022/01/04 12:08:44;;;;;;;6.37;3.00;;;7.30;1.00;;;;;;6213668;23;20711;-61
2022/01/04 12:11:25;;;;;;;6.93;2.83;;;7.30;88.40;;;;;;6214738;23;20369;-62
2022/01/04 12:13:52;;;;;;;5.40;3.03;;;7.20;1.00;;;;;;6214703;23;20385;-62
2022/01/04 12:16:42;;;;;;;7.20;3.20;;;7.20;99.90;;;;;;6214487;23;20385;-62
2022/01/04 12:19:11;;;;;;;11.53;4.70;;;7.10;1.00;;;;;;6214605;23;20547;-62
2022/01/04 12:21:39;;;;;;;9.17;3.53;;;7.10;99.90;;;;;;6214524;23;20386;-62
2022/01/04 12:24:06;;;;;;;7.00;3.57;;;7.10;1.00;;;;;;6214808;23;20365;-62
2022/01/04 12:26:33;;;;;;;8.67;3.07;;;7.10;1.00;;;;;;6214788;23;20377;-60
2022/01/04 12:29:02;;;;;;;5.57;3.47;;;7.10;52.70;;;;;;6214815;23;20386;-62
2022/01/04 12:31:31;;;;;;;6.30;3.40;;;7.00;99.90;;;;;;6214527;23;20420;-62
2022/01/04 12:34:02;;;;;;;5.57;3.03;;;6.90;99.90;;;;;;6214464;23;20371;-62
2022/01/04 12:36:40;;;;;;;5.67;2.53;;;6.90;1.00;;;;;;6214814;23;20366;-62
2022/01/04 12:39:15;;;;;;;4.60;1.67;;;6.90;1.00;;;;;;6214362;23;20416;-62
2022/01/04 12:41:42;;;;;;;4.10;1.97;;;6.90;1.00;;;;;;6213984;23;20401;-62
2022/01/04 12:44:09;;;;;;;3.40;1.70;;;6.80;1.00;;;;;;6214441;23;20812;-62
2022/01/04 12:46:42;;;;;;;6.03;1.80;;;6.80;99.90;;;;;;6214230;23;20365;-62
2022/01/04 12:49:16;;;;;;;1.30;1.20;;;6.80;1.00;;;;;;6214700;23;20443;-62
2022/01/04 12:51:52;;;;;;;1.83;1.00;;;6.70;99.90;;;;;;6214390;23;20477;-62
2022/01/04 12:54:23;;;;;;;2.33;0.90;;;6.60;99.90;;;;;;6214203;23;20372;-62
2022/01/04 12:56:56;;;;;;;6.50;1.03;;;6.50;1.00;;;;;;6214132;23;20388;-62
2022/01/04 12:59:24;;;;;;;3.33;1.20;;;6.50;1.00;;;;;;6214023;23;20874;-61